createdAt,value
2019-01-31T00:00:14.618Z,130.63
2019-01-31T00:03:23.542Z,126.83
2019-01-31T00:06:30.698Z,129.20
2019-01-31T00:09:54.221Z,126.00
2019-01-31T00:12:53.344Z,128.13
2019-01-31T00:15:52.850Z,126.80
2019-01-31T00:18:43.727Z,127.70
2019-01-31T00:21:48.808Z,133.17
2019-01-31T00:24:58.633Z,123.90
2019-01-31T00:28:13.499Z,130.70
2019-01-31T00:31:23.661Z,127.20
2019-01-31T00:34:22.140Z,129.10
2019-01-31T00:37:21.551Z,133.30
2019-01-31T00:40:26.003Z,131.13
2019-01-31T00:43:13.225Z,124.57
2019-01-31T00:46:19.400Z,123.57
2019-01-31T00:49:30.080Z,122.77
2019-01-31T00:52:40.473Z,123.83
2019-01-31T00:55:53.813Z,120.93
2019-01-31T00:58:50.858Z,119.97
2019-01-31T01:02:01.761Z,124.27
2019-01-31T01:05:36.844Z,119.67
2019-01-31T01:08:34.815Z,122.13
2019-01-31T01:11:45.580Z,121.57
2019-01-31T01:14:53.194Z,119.07
2019-01-31T01:17:50.445Z,114.20
2019-01-31T01:21:13.302Z,113.83
2019-01-31T01:24:13.619Z,109.87
2019-01-31T01:27:27.149Z,109.70
2019-01-31T01:30:20.777Z,105.50
2019-01-31T01:33:29.773Z,102.87
2019-01-31T01:36:21.161Z,100.07
2019-01-31T01:39:31.638Z,99.70
2019-01-31T01:42:26.207Z,96.47
2019-01-31T01:45:22.449Z,91.97
2019-01-31T01:48:15.922Z,91.50
2019-01-31T01:51:09.195Z,87.23
2019-01-31T01:54:22.825Z,85.47
2019-01-31T01:57:32.252Z,80.13
2019-01-31T02:00:13.123Z,76.17
2019-01-31T02:03:28.517Z,73.10
2019-01-31T02:06:45.541Z,73.30
2019-01-31T02:09:58.734Z,71.93
2019-01-31T02:13:19.944Z,70.40
2019-01-31T02:16:15.371Z,67.30
2019-01-31T02:19:10.564Z,64.40
2019-01-31T02:22:02.226Z,61.93
2019-01-31T02:24:56.897Z,62.17
2019-01-31T02:27:54.156Z,59.73
2019-01-31T02:30:51.579Z,60.73
2019-01-31T02:34:02.285Z,57.57
2019-01-31T02:37:11.818Z,55.80
2019-01-31T02:40:04.991Z,54.07
2019-01-31T02:43:04.891Z,50.53
2019-01-31T02:46:18.028Z,51.67
2019-01-31T02:49:24.184Z,50.10
2019-01-31T02:52:45.388Z,48.53
2019-01-31T02:55:47.090Z,51.10
2019-01-31T02:58:50.450Z,46.53
2019-01-31T03:02:13.321Z,44.53
2019-01-31T03:05:16.230Z,44.43
2019-01-31T03:08:26.338Z,44.00
2019-01-31T03:11:11.502Z,42.37
2019-01-31T03:14:10.243Z,43.67
2019-01-31T03:17:11.734Z,42.17
2019-01-31T03:20:28.759Z,43.70
2019-01-31T03:23:10.551Z,41.97
2019-01-31T03:26:06.125Z,41.77
2019-01-31T03:28:59.349Z,41.37
2019-01-31T03:32:14.113Z,41.83
2019-01-31T03:35:22.748Z,39.53
2019-01-31T03:38:32.283Z,40.20
2019-01-31T03:41:38.510Z,40.37
2019-01-31T03:44:38.369Z,40.33
2019-01-31T03:47:34.158Z,38.70
2019-01-31T03:50:28.977Z,38.80
2019-01-31T03:53:38.087Z,38.03
2019-01-31T03:56:33.849Z,37.20
2019-01-31T03:59:08.805Z,38.17
2019-01-31T04:02:06.958Z,37.90
2019-01-31T04:04:44.549Z,37.73
2019-01-31T04:07:14.501Z,36.80
2019-01-31T04:09:44.201Z,36.27
2019-01-31T04:12:14.024Z,35.63
2019-01-31T04:14:43.859Z,34.20
2019-01-31T04:17:13.788Z,35.20
2019-01-31T04:19:43.521Z,32.83
2019-01-31T04:22:13.240Z,34.53
2019-01-31T04:24:43.082Z,33.57
2019-01-31T04:27:12.899Z,32.53
2019-01-31T04:29:42.910Z,28.53
2019-01-31T04:32:12.755Z,28.63
2019-01-31T04:34:42.592Z,27.13
2019-01-31T04:37:12.424Z,27.43
2019-01-31T04:39:42.053Z,24.87
2019-01-31T04:42:11.793Z,25.37
2019-01-31T04:44:41.581Z,24.93
2019-01-31T04:47:11.265Z,37.50
2019-01-31T04:49:41.060Z,38.50
2019-01-31T04:52:10.683Z,22.47
2019-01-31T04:54:40.629Z,23.00
2019-01-31T04:57:10.544Z,21.40
2019-01-31T04:59:40.177Z,22.33
2019-01-31T05:02:09.896Z,19.37
2019-01-31T05:04:39.521Z,19.23
2019-01-31T05:07:09.256Z,19.10
2019-01-31T05:09:40.116Z,19.50
2019-01-31T05:12:09.929Z,18.93
2019-01-31T05:14:39.756Z,17.73
2019-01-31T05:17:09.399Z,17.80
2019-01-31T05:19:40.419Z,18.93
2019-01-31T05:22:10.082Z,17.30
2019-01-31T05:24:39.909Z,18.13
2019-01-31T05:27:09.868Z,18.20
2019-01-31T05:29:39.653Z,18.50
2019-01-31T05:32:09.491Z,21.50
2019-01-31T05:34:39.010Z,25.50
2019-01-31T05:37:08.408Z,27.83
2019-01-31T05:39:37.832Z,28.27
2019-01-31T05:42:07.223Z,27.30
2019-01-31T05:44:36.900Z,27.80
2019-01-31T05:47:06.514Z,27.23
2019-01-31T05:49:36.270Z,27.60
2019-01-31T05:52:07.573Z,28.93
2019-01-31T05:54:37.040Z,30.33
2019-01-31T05:57:07.080Z,31.80
2019-01-31T05:59:36.794Z,30.90
2019-01-31T06:02:06.635Z,32.10
2019-01-31T06:04:36.439Z,35.63
2019-01-31T06:07:11.219Z,35.77
2019-01-31T06:09:37.726Z,35.33
2019-01-31T06:12:07.208Z,38.30
2019-01-31T06:14:37.100Z,42.43
2019-01-31T06:17:06.814Z,42.00
2019-01-31T06:19:36.656Z,44.33
2019-01-31T06:22:06.373Z,46.67
2019-01-31T06:24:36.229Z,47.43
2019-01-31T06:27:06.036Z,47.93
2019-01-31T06:29:35.910Z,50.83
2019-01-31T06:32:05.695Z,56.77
2019-01-31T06:34:35.536Z,71.77
2019-01-31T06:37:05.371Z,71.17
2019-01-31T06:39:35.195Z,79.77
2019-01-31T06:42:05.019Z,81.03
2019-01-31T06:44:35.046Z,88.83
2019-01-31T06:47:04.885Z,86.20
2019-01-31T06:49:34.503Z,91.80
2019-01-31T06:52:04.268Z,93.33
2019-01-31T06:54:34.161Z,94.87
2019-01-31T06:57:04.089Z,95.10
2019-01-31T06:59:34.033Z,96.07
2019-01-31T07:02:03.845Z,95.63
2019-01-31T07:04:33.763Z,92.27
2019-01-31T07:07:03.318Z,91.87
2019-01-31T07:09:33.173Z,97.70
2019-01-31T07:12:03.076Z,93.53
2019-01-31T07:14:32.876Z,92.73
2019-01-31T07:17:02.537Z,92.20
2019-01-31T07:19:32.368Z,88.70
2019-01-31T07:22:03.500Z,91.13
2019-01-31T07:24:33.261Z,90.90
2019-01-31T07:27:03.077Z,86.90
2019-01-31T07:29:33.001Z,86.43
2019-01-31T07:32:03.710Z,85.97
2019-01-31T07:34:34.998Z,84.67
2019-01-31T07:37:04.845Z,86.70
2019-01-31T07:39:34.689Z,78.50
2019-01-31T07:42:04.298Z,74.90
2019-01-31T07:44:34.135Z,72.10
2019-01-31T07:47:04.077Z,69.20
2019-01-31T07:49:36.649Z,68.47
2019-01-31T07:52:06.470Z,68.40
2019-01-31T07:54:36.352Z,64.53
2019-01-31T07:57:05.948Z,62.30
2019-01-31T07:59:35.814Z,61.53
2019-01-31T08:02:05.600Z,59.60
2019-01-31T08:04:35.643Z,59.73
2019-01-31T08:07:05.369Z,59.00
2019-01-31T08:09:35.181Z,57.30
2019-01-31T08:12:05.052Z,58.33
2019-01-31T08:14:35.062Z,56.03
2019-01-31T08:17:04.665Z,56.60
2019-01-31T08:19:34.620Z,58.37
2019-01-31T08:22:04.448Z,59.63
2019-01-31T08:24:34.381Z,61.23
2019-01-31T08:27:04.302Z,64.07
2019-01-31T08:29:34.032Z,65.73
2019-01-31T08:32:03.955Z,63.80
2019-01-31T08:34:33.621Z,64.57
2019-01-31T08:37:03.322Z,65.00
2019-01-31T08:39:33.256Z,65.10
2019-01-31T08:42:04.009Z,67.00
2019-01-31T08:44:34.028Z,69.63
2019-01-31T08:47:03.737Z,67.00
2019-01-31T08:49:33.593Z,74.03
2019-01-31T08:52:03.449Z,69.23
2019-01-31T08:54:33.128Z,72.63
2019-01-31T08:57:21.661Z,74.07
2019-01-31T08:59:51.425Z,73.60
2019-01-31T09:02:21.275Z,78.97
2019-01-31T09:04:51.193Z,74.63
2019-01-31T09:07:21.006Z,77.20
2019-01-31T09:09:50.873Z,82.00
2019-01-31T09:12:20.553Z,81.97
2019-01-31T09:14:50.215Z,81.60
2019-01-31T09:17:21.030Z,85.13
2019-01-31T09:19:50.687Z,83.77
2019-01-31T09:22:41.655Z,86.10
2019-01-31T09:25:46.040Z,86.40
2019-01-31T09:28:31.552Z,90.10
2019-01-31T09:31:38.807Z,90.10
2019-01-31T09:34:55.576Z,90.97
2019-01-31T09:37:53.162Z,88.10
2019-01-31T09:40:45.842Z,86.30
2019-01-31T09:44:05.365Z,82.70
2019-01-31T09:47:33.073Z,78.87
2019-01-31T09:50:52.483Z,77.53
2019-01-31T09:54:00.207Z,75.80
2019-01-31T09:57:19.837Z,77.20
2019-01-31T10:00:27.558Z,77.10
2019-01-31T10:03:46.909Z,75.23
2019-01-31T10:06:53.282Z,74.07
2019-01-31T10:09:57.785Z,73.67
2019-01-31T10:12:56.413Z,71.70
2019-01-31T10:16:01.943Z,72.37
2019-01-31T10:19:01.326Z,72.53
2019-01-31T10:21:55.536Z,72.57
2019-01-31T10:25:15.840Z,74.93
2019-01-31T10:28:12.157Z,77.93
2019-01-31T10:31:25.938Z,78.60
2019-01-31T10:34:10.155Z,84.97
2019-01-31T10:37:07.137Z,82.57
2019-01-31T10:40:24.316Z,84.30
2019-01-31T10:43:04.622Z,79.73
2019-01-31T10:46:07.343Z,80.97
2019-01-31T10:49:06.560Z,84.73
2019-01-31T10:52:23.361Z,87.40
2019-01-31T10:55:44.911Z,90.77
2019-01-31T10:58:38.233Z,93.63
2019-01-31T11:01:42.412Z,92.97
2019-01-31T11:04:50.028Z,92.17
2019-01-31T11:07:43.226Z,93.80
2019-01-31T11:10:37.173Z,94.47
2019-01-31T11:13:55.789Z,91.57
2019-01-31T11:17:05.393Z,90.90
2019-01-31T11:20:34.411Z,90.30
2019-01-31T11:23:16.568Z,91.73
2019-01-31T11:26:20.016Z,97.23
2019-01-31T11:29:27.583Z,101.60
2019-01-31T11:32:21.669Z,96.70
2019-01-31T11:35:44.291Z,98.53
2019-01-31T11:38:44.322Z,98.07
2019-01-31T11:41:47.913Z,100.07
2019-01-31T11:45:15.076Z,102.90
2019-01-31T11:48:15.288Z,106.13
2019-01-31T11:51:24.266Z,102.20
2019-01-31T11:54:55.213Z,103.70
2019-01-31T11:58:13.493Z,105.87
2019-01-31T12:00:43.405Z,102.37
2019-01-31T12:03:14.865Z,107.13
2019-01-31T12:05:44.698Z,109.07
2019-01-31T12:08:14.451Z,108.90
2019-01-31T12:10:44.220Z,111.10
2019-01-31T12:13:23.255Z,109.67
2019-01-31T12:15:45.468Z,104.60
2019-01-31T12:18:15.485Z,104.20
2019-01-31T12:20:45.234Z,103.60
2019-01-31T12:23:15.144Z,101.90
2019-01-31T12:25:45.030Z,99.97
2019-01-31T12:28:14.827Z,97.37
2019-01-31T12:30:44.513Z,97.13
2019-01-31T12:33:14.271Z,95.53
2019-01-31T12:35:44.527Z,95.00
2019-01-31T12:38:15.714Z,92.00
2019-01-31T12:40:46.301Z,92.00
2019-01-31T12:43:18.102Z,89.67
2019-01-31T12:45:47.845Z,92.03
2019-01-31T12:48:17.694Z,88.00
2019-01-31T12:50:47.527Z,85.60
2019-01-31T12:53:17.822Z,86.83
2019-01-31T12:55:48.247Z,86.43
2019-01-31T12:58:19.283Z,87.27
2019-01-31T13:00:49.385Z,85.23
2019-01-31T13:03:20.698Z,88.17
2019-01-31T13:05:51.064Z,85.83
2019-01-31T13:08:21.670Z,83.33
2019-01-31T13:10:53.212Z,83.03
2019-01-31T13:13:23.312Z,84.30
2019-01-31T13:15:55.402Z,82.33
2019-01-31T13:18:27.549Z,80.73
2019-01-31T13:20:58.364Z,83.37
2019-01-31T13:23:28.767Z,82.47
2019-01-31T13:25:59.543Z,80.30
2019-01-31T13:28:31.844Z,81.97
2019-01-31T13:31:02.088Z,81.73
2019-01-31T13:33:32.136Z,78.17
2019-01-31T13:36:02.767Z,77.23
2019-01-31T13:38:33.516Z,80.87
2019-01-31T13:41:04.817Z,77.30
2019-01-31T13:43:35.756Z,75.90
2019-01-31T13:46:08.478Z,76.73
2019-01-31T13:48:39.388Z,75.30
2019-01-31T13:51:10.588Z,75.83
2019-01-31T13:53:42.202Z,73.40
2019-01-31T13:56:13.191Z,74.53
2019-01-31T13:58:43.695Z,73.87
2019-01-31T14:01:13.806Z,76.77
2019-01-31T14:03:43.726Z,76.03
2019-01-31T14:06:15.124Z,79.10
2019-01-31T14:08:46.163Z,78.70
2019-01-31T14:11:16.416Z,76.90
2019-01-31T14:13:46.682Z,77.47
2019-01-31T14:16:16.870Z,82.03
2019-01-31T14:18:48.152Z,79.43
2019-01-31T14:21:19.285Z,77.73
2019-01-31T14:23:49.783Z,74.70
2019-01-31T14:26:19.558Z,73.13
2019-01-31T14:28:50.150Z,71.53
2019-01-31T14:31:21.910Z,69.50
2019-01-31T14:33:52.019Z,67.17
2019-01-31T14:36:22.432Z,69.90
2019-01-31T14:38:54.575Z,72.43
2019-01-31T14:41:24.883Z,73.80
2019-01-31T14:43:55.626Z,77.67
2019-01-31T14:46:26.422Z,78.27
2019-01-31T14:48:56.518Z,78.40
2019-01-31T14:51:26.822Z,78.40
2019-01-31T14:53:57.165Z,80.67
2019-01-31T14:56:27.244Z,81.23
2019-01-31T14:58:57.104Z,79.97
2019-01-31T15:01:26.896Z,81.70
2019-01-31T15:03:56.716Z,82.90
2019-01-31T15:06:26.355Z,82.67
2019-01-31T15:08:56.277Z,81.20
2019-01-31T15:11:26.196Z,80.23
2019-01-31T15:13:55.742Z,86.37
2019-01-31T15:16:25.473Z,83.60
2019-01-31T15:18:55.329Z,85.50
2019-01-31T15:21:25.016Z,84.20
2019-01-31T15:23:54.947Z,86.93
2019-01-31T15:26:24.685Z,84.60
2019-01-31T15:28:54.443Z,86.10
2019-01-31T15:31:24.228Z,82.90
2019-01-31T15:33:53.756Z,82.50
2019-01-31T15:36:23.494Z,84.03
2019-01-31T15:38:53.405Z,87.00
2019-01-31T15:41:23.265Z,78.73
2019-01-31T15:43:53.049Z,75.27
2019-01-31T15:46:22.730Z,75.27
2019-01-31T15:48:52.449Z,72.73
2019-01-31T15:51:22.206Z,76.17
2019-01-31T15:53:52.828Z,75.30
2019-01-31T15:56:22.610Z,74.43
2019-01-31T15:58:54.208Z,72.40
2019-01-31T16:01:24.161Z,64.70
2019-01-31T16:03:54.117Z,68.27
2019-01-31T16:06:23.750Z,69.97
2019-01-31T16:08:53.541Z,72.20
2019-01-31T16:11:23.485Z,70.53
2019-01-31T16:13:53.284Z,71.00
2019-01-31T16:16:23.227Z,72.17
2019-01-31T16:18:53.008Z,68.17
2019-01-31T16:21:22.798Z,67.23
2019-01-31T16:23:52.616Z,65.77
2019-01-31T16:26:22.204Z,63.87
2019-01-31T16:28:52.167Z,65.33
2019-01-31T16:31:22.178Z,64.70
2019-01-31T16:33:52.059Z,62.17
2019-01-31T16:36:23.789Z,61.70
2019-01-31T16:38:53.453Z,63.47
2019-01-31T16:41:23.354Z,66.87
2019-01-31T16:43:55.843Z,62.73
2019-01-31T16:46:25.518Z,65.77
2019-01-31T16:48:55.529Z,65.50
2019-01-31T16:51:25.448Z,71.83
2019-01-31T16:53:55.256Z,65.73
2019-01-31T16:56:25.132Z,69.50
2019-01-31T16:58:54.812Z,69.90
2019-01-31T17:01:24.543Z,66.27
2019-01-31T17:03:54.517Z,65.80
2019-01-31T17:06:24.418Z,66.57
2019-01-31T17:08:55.548Z,63.60
2019-01-31T17:11:25.310Z,53.77
2019-01-31T17:13:55.145Z,55.23
2019-01-31T17:16:24.848Z,59.13
2019-01-31T17:18:55.007Z,57.00
2019-01-31T17:21:24.730Z,54.77
2019-01-31T17:23:54.455Z,53.70
2019-01-31T17:26:24.419Z,54.00
2019-01-31T17:28:54.336Z,51.60
2019-01-31T17:31:24.139Z,51.63
2019-01-31T17:33:53.777Z,45.93
2019-01-31T17:36:23.506Z,46.50
2019-01-31T17:38:53.428Z,56.43
2019-01-31T17:41:23.284Z,49.70
2019-01-31T17:43:53.081Z,48.93
2019-01-31T17:46:22.957Z,49.77
2019-01-31T17:48:52.862Z,48.97
2019-01-31T17:51:22.712Z,50.23
2019-01-31T17:53:52.351Z,50.47
2019-01-31T17:56:22.028Z,54.30
2019-01-31T17:58:51.806Z,56.90
2019-01-31T18:01:21.497Z,56.10
2019-01-31T18:03:51.525Z,56.93
2019-01-31T18:06:21.365Z,60.07
2019-01-31T18:08:51.174Z,60.07
2019-01-31T18:11:21.398Z,68.17
2019-01-31T18:13:52.598Z,67.10
2019-01-31T18:16:22.331Z,64.73
2019-01-31T18:18:52.401Z,67.23
2019-01-31T18:21:22.181Z,63.47
2019-01-31T18:23:51.875Z,65.87
2019-01-31T18:26:21.710Z,64.57
2019-01-31T18:28:51.482Z,63.53
2019-01-31T18:31:21.271Z,63.77
2019-01-31T18:33:51.202Z,67.63
2019-01-31T18:36:21.140Z,71.97
2019-01-31T18:38:51.063Z,72.37
2019-01-31T18:41:20.742Z,74.67
2019-01-31T18:43:50.512Z,70.70
2019-01-31T18:46:20.357Z,69.03
2019-01-31T18:48:50.102Z,66.07
2019-01-31T18:51:19.811Z,68.90
2019-01-31T18:53:49.616Z,73.10
2019-01-31T18:56:19.469Z,68.17
2019-01-31T18:58:49.513Z,65.67
2019-01-31T19:01:19.309Z,64.87
2019-01-31T19:03:49.250Z,62.77
2019-01-31T19:06:18.924Z,64.37
2019-01-31T19:08:48.804Z,63.37
2019-01-31T19:11:18.740Z,61.53
2019-01-31T19:13:48.700Z,62.40
2019-01-31T19:16:18.403Z,62.70
2019-01-31T19:18:48.381Z,59.47
2019-01-31T19:21:18.154Z,57.77
2019-01-31T19:23:48.274Z,58.57
2019-01-31T19:26:17.993Z,61.57
2019-01-31T19:28:47.751Z,57.97
2019-01-31T19:31:17.710Z,58.87
2019-01-31T19:33:51.602Z,57.57
2019-01-31T19:36:19.838Z,62.50
2019-01-31T19:38:49.640Z,57.97
2019-01-31T19:41:19.255Z,57.40
2019-01-31T19:43:49.263Z,55.80
2019-01-31T19:46:19.029Z,55.50
2019-01-31T19:48:48.748Z,54.80
2019-01-31T19:51:18.370Z,54.67
2019-01-31T19:53:48.525Z,52.77
2019-01-31T19:56:18.465Z,53.57
2019-01-31T19:58:49.866Z,53.40
2019-01-31T20:01:19.520Z,49.40
2019-01-31T20:03:50.156Z,52.50
2019-01-31T20:06:19.912Z,53.13
2019-01-31T20:08:49.722Z,52.10
2019-01-31T20:11:19.762Z,51.27
2019-01-31T20:13:49.491Z,49.77
2019-01-31T20:16:28.593Z,47.80
2019-01-31T20:18:50.705Z,48.37
2019-01-31T20:21:20.520Z,45.67
2019-01-31T20:23:50.351Z,44.13
2019-01-31T20:26:20.158Z,45.80
2019-01-31T20:28:50.124Z,46.47
2019-01-31T20:31:19.844Z,45.23
2019-01-31T20:33:49.367Z,43.87
2019-01-31T20:36:19.289Z,42.87
2019-01-31T20:38:49.020Z,41.60
2019-01-31T20:41:18.743Z,41.43
2019-01-31T20:43:48.595Z,43.13
2019-01-31T20:46:18.498Z,41.13
2019-01-31T20:48:48.333Z,40.00
2019-01-31T20:51:18.061Z,39.13
2019-01-31T20:53:47.794Z,39.93
2019-01-31T20:56:17.690Z,39.70
2019-01-31T20:58:47.430Z,39.00
2019-01-31T21:01:17.419Z,38.70
2019-01-31T21:03:49.450Z,40.87
2019-01-31T21:06:18.674Z,40.07
2019-01-31T21:08:48.502Z,39.97
2019-01-31T21:11:18.324Z,38.20
2019-01-31T21:13:48.177Z,40.10
2019-01-31T21:16:20.373Z,40.87
2019-01-31T21:18:50.080Z,39.83
2019-01-31T21:21:19.909Z,37.37
2019-01-31T21:23:49.834Z,39.07
2019-01-31T21:26:19.432Z,38.23
2019-01-31T21:28:49.324Z,39.53
2019-01-31T21:31:19.101Z,38.03
2019-01-31T21:33:49.035Z,37.13
2019-01-31T21:36:18.795Z,37.63
2019-01-31T21:38:48.699Z,36.77
2019-01-31T21:41:18.545Z,36.90
2019-01-31T21:43:48.245Z,36.00
2019-01-31T21:46:17.997Z,35.17
2019-01-31T21:48:47.809Z,35.77
2019-01-31T21:51:17.684Z,35.03
2019-01-31T21:53:47.570Z,35.03
2019-01-31T21:56:17.312Z,34.93
2019-01-31T21:58:47.143Z,36.37
2019-01-31T22:01:16.957Z,36.43
2019-01-31T22:03:46.610Z,35.80
2019-01-31T22:06:22.731Z,34.83
2019-01-31T22:08:47.938Z,37.93
2019-01-31T22:11:17.617Z,35.83
2019-01-31T22:13:47.350Z,34.80
2019-01-31T22:16:17.261Z,35.43
2019-01-31T22:18:47.147Z,35.77
2019-01-31T22:21:16.710Z,34.60
2019-01-31T22:23:46.447Z,33.77
2019-01-31T22:26:16.268Z,35.27
2019-01-31T22:28:46.106Z,33.70
2019-01-31T22:31:15.725Z,33.00
2019-01-31T22:33:45.358Z,33.40
2019-01-31T22:36:15.299Z,32.53
2019-01-31T22:38:45.675Z,32.80
2019-01-31T22:41:15.445Z,31.60
2019-01-31T22:43:46.990Z,31.07
2019-01-31T22:46:16.667Z,33.13
2019-01-31T22:48:46.582Z,31.70
2019-01-31T22:51:16.347Z,30.77
2019-01-31T22:53:46.336Z,30.63
2019-01-31T22:56:15.958Z,30.23
2019-01-31T22:58:45.798Z,31.90
2019-01-31T23:01:47.115Z,31.30
2019-01-31T23:04:16.875Z,28.33
2019-01-31T23:06:47.509Z,28.60
2019-01-31T23:09:18.155Z,28.70
2019-01-31T23:11:48.678Z,29.67
2019-01-31T23:14:18.444Z,29.30
2019-01-31T23:16:48.176Z,27.07
2019-01-31T23:19:17.903Z,27.63
2019-01-31T23:21:47.729Z,27.83
2019-01-31T23:24:17.454Z,27.53
2019-01-31T23:26:47.490Z,27.33
2019-01-31T23:29:17.425Z,26.80
2019-01-31T23:31:47.146Z,27.83
2019-01-31T23:34:16.777Z,26.77
2019-01-31T23:36:46.496Z,25.67
2019-01-31T23:39:16.105Z,26.33
2019-01-31T23:41:45.867Z,26.00
2019-01-31T23:44:15.784Z,26.80
2019-01-31T23:46:45.625Z,24.33
2019-01-31T23:49:15.422Z,23.93
2019-01-31T23:51:45.067Z,23.87
2019-01-31T23:54:14.904Z,23.13
2019-01-31T23:56:44.813Z,23.27
2019-01-31T23:59:14.554Z,22.80
